createdAt,value
2018-12-15T00:03:22.492Z,11.73
2018-12-15T00:08:15.735Z,16.00
2018-12-15T00:13:08.916Z,13.98
2018-12-15T00:18:02.190Z,16.02
2018-12-15T00:22:55.377Z,14.50
2018-12-15T00:27:48.791Z,15.70
2018-12-15T00:32:42.060Z,16.40
2018-12-15T00:37:35.258Z,14.47
2018-12-15T00:42:31.448Z,13.53
2018-12-15T00:47:24.726Z,12.40
2018-12-15T00:52:17.911Z,13.83
2018-12-15T00:57:12.489Z,12.47
2018-12-15T01:02:05.784Z,11.50
2018-12-15T01:06:59.211Z,13.80
2018-12-15T01:11:52.498Z,12.80
2018-12-15T01:16:46.011Z,12.95
2018-12-15T01:21:39.373Z,11.15
2018-12-15T01:26:33.109Z,12.23
2018-12-15T01:31:26.337Z,11.25
2018-12-15T01:36:19.591Z,12.43
2018-12-15T01:41:12.815Z,11.75
2018-12-15T01:46:06.053Z,12.93
2018-12-15T01:50:59.504Z,13.38
2018-12-15T01:55:53.082Z,14.38
2018-12-15T02:00:46.606Z,13.22
2018-12-15T02:05:39.851Z,12.88
2018-12-15T02:10:33.043Z,14.18
2018-12-15T02:15:26.333Z,12.20
2018-12-15T02:20:19.589Z,13.60
2018-12-15T02:25:14.013Z,13.45
2018-12-15T02:30:07.952Z,14.03
2018-12-15T02:35:01.259Z,12.82
2018-12-15T02:39:54.579Z,10.43
2018-12-15T02:44:47.840Z,13.30
2018-12-15T02:49:41.452Z,13.28
2018-12-15T02:54:34.815Z,13.10
2018-12-15T02:59:27.999Z,11.65
2018-12-15T03:04:21.412Z,12.98
2018-12-15T03:09:14.963Z,11.88
2018-12-15T03:14:08.150Z,11.90
2018-12-15T03:19:11.027Z,12.75
2018-12-15T03:24:04.227Z,11.53
2018-12-15T03:28:57.431Z,13.88
2018-12-15T03:33:51.444Z,13.43
2018-12-15T03:38:44.645Z,11.68
2018-12-15T03:43:38.047Z,12.70
2018-12-15T03:48:31.209Z,12.05
2018-12-15T03:53:24.388Z,12.82
2018-12-15T03:58:17.575Z,12.15
2018-12-15T04:03:10.896Z,11.45
2018-12-15T04:08:04.134Z,13.38
2018-12-15T04:12:57.324Z,14.87
2018-12-15T04:17:50.509Z,13.00
2018-12-15T04:22:44.749Z,13.72
2018-12-15T04:27:37.937Z,13.08
2018-12-15T04:32:31.128Z,15.63
2018-12-15T04:37:24.342Z,12.78
2018-12-15T04:42:17.559Z,14.75
2018-12-15T04:47:12.252Z,14.43
2018-12-15T04:52:05.462Z,14.38
2018-12-15T04:56:58.674Z,12.20
2018-12-15T05:01:51.849Z,13.00
2018-12-15T05:06:45.052Z,13.08
2018-12-15T05:11:38.283Z,13.32
2018-12-15T05:16:31.504Z,12.80
2018-12-15T05:21:24.710Z,13.27
2018-12-15T05:26:17.891Z,11.18
2018-12-15T05:31:12.180Z,11.55
2018-12-15T05:36:05.361Z,12.65
2018-12-15T05:41:00.201Z,12.20
2018-12-15T05:45:53.403Z,11.85
2018-12-15T05:50:46.624Z,14.45
2018-12-15T05:55:40.321Z,15.10
2018-12-15T06:00:33.537Z,14.28
2018-12-15T06:05:27.053Z,12.65
2018-12-15T06:10:20.254Z,13.95
2018-12-15T06:15:13.584Z,11.48
2018-12-15T06:20:07.512Z,13.78
2018-12-15T06:25:00.690Z,15.32
2018-12-15T06:29:53.904Z,14.25
2018-12-15T06:34:48.325Z,14.20
2018-12-15T06:39:41.536Z,13.65
2018-12-15T06:44:34.769Z,15.40
2018-12-15T06:49:28.289Z,11.97
2018-12-15T06:54:22.293Z,13.18
2018-12-15T06:59:16.132Z,14.70
2018-12-15T07:04:09.356Z,14.65
2018-12-15T07:09:03.442Z,14.35
2018-12-15T07:13:56.632Z,16.30
2018-12-15T07:18:50.125Z,14.05
2018-12-15T07:23:43.454Z,17.17
2018-12-15T07:28:36.774Z,14.58
2018-12-15T07:33:29.956Z,15.53
2018-12-15T07:38:23.234Z,19.40
2018-12-15T07:43:16.415Z,16.40
2018-12-15T07:48:09.599Z,17.15
2018-12-15T07:53:02.823Z,17.75
2018-12-15T07:57:56.001Z,16.87
2018-12-15T08:02:49.196Z,16.23
2018-12-15T08:07:42.530Z,19.30
2018-12-15T08:12:38.699Z,16.85
2018-12-15T08:17:31.924Z,19.32
2018-12-15T08:22:26.287Z,16.48
2018-12-15T08:27:19.678Z,16.32
2018-12-15T08:32:13.053Z,17.80
2018-12-15T08:37:06.474Z,16.27
2018-12-15T08:41:59.677Z,17.87
2018-12-15T08:46:52.890Z,17.50
2018-12-15T08:51:46.056Z,16.45
2018-12-15T08:56:39.375Z,17.52
2018-12-15T09:01:32.667Z,16.85
2018-12-15T09:06:25.917Z,16.25
2018-12-15T09:11:19.873Z,18.95
2018-12-15T09:16:13.835Z,19.30
2018-12-15T09:21:07.252Z,17.55
2018-12-15T09:26:00.475Z,18.95
2018-12-15T09:30:53.805Z,17.82
2018-12-15T09:35:47.151Z,18.35
2018-12-15T09:40:40.428Z,20.70
2018-12-15T09:45:33.939Z,19.67
2018-12-15T09:50:27.375Z,19.62
2018-12-15T09:55:20.720Z,20.50
2018-12-15T10:00:14.420Z,21.23
2018-12-15T10:05:07.826Z,18.67
2018-12-15T10:10:01.028Z,20.12
2018-12-15T10:14:55.319Z,18.55
2018-12-15T10:19:50.035Z,18.90
2018-12-15T10:24:43.242Z,20.23
2018-12-15T10:29:42.049Z,20.52
2018-12-15T10:34:35.272Z,21.50
2018-12-15T10:39:28.542Z,19.30
2018-12-15T10:44:21.730Z,18.82
2018-12-15T10:49:15.475Z,17.82
2018-12-15T10:54:08.786Z,19.25
2018-12-15T10:59:02.686Z,18.12
2018-12-15T11:04:00.758Z,18.40
2018-12-15T11:08:51.300Z,19.10
2018-12-15T11:13:45.367Z,17.17
2018-12-15T11:18:38.657Z,20.25
2018-12-15T11:23:32.198Z,19.85
2018-12-15T11:28:25.583Z,17.95
2018-12-15T11:33:18.853Z,15.38
2018-12-15T11:38:12.098Z,19.87
2018-12-15T11:43:05.463Z,18.57
2018-12-15T11:47:58.667Z,16.55
2018-12-15T11:52:51.946Z,17.37
2018-12-15T11:57:45.128Z,15.83
2018-12-15T12:02:39.452Z,17.52
2018-12-15T12:07:32.701Z,15.53
2018-12-15T12:12:26.937Z,16.00
2018-12-15T12:17:20.172Z,15.03
2018-12-15T12:22:13.595Z,17.25
2018-12-15T12:27:06.810Z,16.73
2018-12-15T12:32:01.730Z,17.32
2018-12-15T12:36:54.983Z,18.23
2018-12-15T12:41:55.385Z,17.92
2018-12-15T12:46:49.096Z,15.90
2018-12-15T12:51:42.790Z,18.48
2018-12-15T12:56:36.018Z,17.20
2018-12-15T13:01:29.396Z,18.25
2018-12-15T13:06:22.604Z,16.12
2018-12-15T13:11:16.184Z,16.75
2018-12-15T13:16:09.452Z,16.52
2018-12-15T13:21:02.703Z,18.30
2018-12-15T13:25:55.933Z,15.90
2018-12-15T13:30:49.105Z,18.87
2018-12-15T13:35:42.359Z,17.37
2018-12-15T13:40:35.689Z,20.32
2018-12-15T13:45:29.313Z,14.45
2018-12-15T13:50:22.580Z,16.32
2018-12-15T13:55:15.797Z,16.97
2018-12-15T14:00:09.293Z,15.32
2018-12-15T14:05:02.716Z,15.75
2018-12-15T14:09:55.951Z,14.68
2018-12-15T14:14:49.275Z,17.20
2018-12-15T14:19:42.449Z,16.95
2018-12-15T14:24:35.727Z,15.18
2018-12-15T14:29:28.925Z,14.58
2018-12-15T14:34:22.086Z,14.40
2018-12-15T14:39:15.303Z,15.32
2018-12-15T14:44:09.139Z,14.85
2018-12-15T14:49:02.897Z,15.98
2018-12-15T14:53:56.119Z,17.05
2018-12-15T14:58:49.385Z,16.85
2018-12-15T15:03:42.603Z,15.88
2018-12-15T15:08:35.813Z,16.05
2018-12-15T15:13:34.546Z,17.32
2018-12-15T15:18:24.415Z,17.32
2018-12-15T15:23:17.703Z,18.37
2018-12-15T15:28:10.947Z,16.55
2018-12-15T15:33:04.243Z,17.60
2018-12-15T15:37:57.514Z,15.48
2018-12-15T15:42:51.679Z,18.42
2018-12-15T15:47:44.974Z,18.90
2018-12-15T15:52:38.338Z,16.77
2018-12-15T15:57:32.659Z,15.55
2018-12-15T16:02:26.108Z,13.38
2018-12-15T16:07:19.365Z,14.53
2018-12-15T16:12:12.648Z,16.80
2018-12-15T16:17:06.104Z,17.60
2018-12-15T16:21:59.359Z,15.88
2018-12-15T16:26:52.569Z,17.25
2018-12-15T16:31:46.448Z,18.27
2018-12-15T16:36:39.729Z,17.25
2018-12-15T16:41:32.934Z,18.48
2018-12-15T16:46:26.123Z,18.37
2018-12-15T16:51:19.688Z,19.05
2018-12-15T16:56:12.885Z,18.67
2018-12-15T17:01:06.810Z,17.77
2018-12-15T17:06:00.074Z,19.48
2018-12-15T17:10:53.324Z,13.45
2018-12-15T17:15:46.525Z,18.32
2018-12-15T17:20:39.720Z,17.40
2018-12-15T17:25:33.474Z,17.77
2018-12-15T17:30:26.981Z,20.35
2018-12-15T17:35:20.827Z,19.15
2018-12-15T17:40:15.068Z,16.50
2018-12-15T17:45:08.958Z,20.00
2018-12-15T17:50:02.235Z,17.75
2018-12-15T17:54:56.172Z,19.60
2018-12-15T17:59:49.537Z,18.02
2018-12-15T18:04:42.851Z,18.62
2018-12-15T18:09:36.066Z,16.70
2018-12-15T18:14:29.359Z,18.37
2018-12-15T18:19:23.125Z,16.55
2018-12-15T18:24:16.340Z,19.02
2018-12-15T18:29:09.526Z,18.75
2018-12-15T18:34:02.778Z,18.50
2018-12-15T18:38:56.076Z,17.48
2018-12-15T18:43:49.305Z,19.15
2018-12-15T18:48:42.763Z,20.72
2018-12-15T18:53:36.353Z,20.50
2018-12-15T18:58:29.622Z,20.05
2018-12-15T19:03:23.265Z,20.52
2018-12-15T19:08:16.619Z,20.80
2018-12-15T19:13:09.853Z,20.70
2018-12-15T19:18:03.181Z,17.45
2018-12-15T19:22:56.408Z,21.12
2018-12-15T19:27:49.622Z,21.95
2018-12-15T19:32:43.965Z,19.00
2018-12-15T19:37:37.710Z,19.65
2018-12-15T19:42:30.969Z,21.73
2018-12-15T19:47:24.153Z,19.05
2018-12-15T19:52:17.410Z,19.77
2018-12-15T19:57:10.646Z,19.02
2018-12-15T20:02:03.890Z,20.55
2018-12-15T20:06:57.145Z,19.57
2018-12-15T20:11:50.373Z,20.68
2018-12-15T20:16:43.722Z,19.85
2018-12-15T20:21:36.927Z,20.92
2018-12-15T20:26:30.239Z,19.62
2018-12-15T20:31:23.495Z,19.77
2018-12-15T20:36:16.721Z,18.15
2018-12-15T20:41:09.981Z,19.95
2018-12-15T20:46:03.353Z,20.15
2018-12-15T20:50:56.609Z,20.85
2018-12-15T20:55:50.333Z,21.30
2018-12-15T21:00:43.543Z,19.95
2018-12-15T21:05:36.941Z,21.00
2018-12-15T21:10:30.284Z,24.15
2018-12-15T21:15:28.935Z,20.43
2018-12-15T21:20:22.147Z,20.55
2018-12-15T21:25:15.368Z,21.35
2018-12-15T21:30:10.407Z,21.30
2018-12-15T21:35:04.425Z,20.48
2018-12-15T21:39:57.655Z,20.23
2018-12-15T21:44:50.895Z,19.30
2018-12-15T21:49:44.375Z,21.75
2018-12-15T21:54:37.644Z,20.75
2018-12-15T21:59:31.041Z,18.95
2018-12-15T22:04:24.249Z,21.07
2018-12-15T22:09:17.590Z,23.77
2018-12-15T22:14:10.838Z,23.40
2018-12-15T22:19:04.048Z,20.30
2018-12-15T22:23:57.279Z,22.48
2018-12-15T22:28:50.520Z,20.77
2018-12-15T22:33:43.761Z,20.82
2018-12-15T22:38:36.952Z,20.75
2018-12-15T22:43:30.637Z,21.93
2018-12-15T22:48:23.899Z,23.92
2018-12-15T22:53:17.161Z,24.33
2018-12-15T22:58:10.797Z,20.92
2018-12-15T23:03:04.457Z,25.50
2018-12-15T23:07:58.397Z,25.65
2018-12-15T23:12:51.638Z,22.52
2018-12-15T23:17:44.870Z,23.22
2018-12-15T23:22:38.108Z,22.67
2018-12-15T23:27:31.362Z,23.27
2018-12-15T23:32:24.607Z,26.73
2018-12-15T23:37:17.843Z,26.20
2018-12-15T23:42:11.169Z,26.30
2018-12-15T23:47:04.520Z,26.87
2018-12-15T23:51:57.853Z,29.10
2018-12-15T23:56:51.069Z,26.20
